createdAt,value
2022-12-24T00:01:44.842Z,10.50
2022-12-24T00:04:11.729Z,7.80
2022-12-24T00:06:38.716Z,9.50
2022-12-24T00:09:05.747Z,12.50
2022-12-24T00:11:32.720Z,14.70
2022-12-24T00:13:59.760Z,16.50
2022-12-24T00:16:27.490Z,18.10
2022-12-24T00:18:54.355Z,21.80
2022-12-24T00:21:21.392Z,21.80
2022-12-24T00:23:48.365Z,20.30
2022-12-24T00:26:15.340Z,19.50
2022-12-24T00:28:42.357Z,22.00
2022-12-24T00:31:12.933Z,20.70
2022-12-24T00:33:40.204Z,21.10
2022-12-24T00:36:08.952Z,17.50
2022-12-24T00:38:36.447Z,19.70
2022-12-24T00:41:06.149Z,18.30
2022-12-24T00:43:33.174Z,20.40
2022-12-24T00:46:00.248Z,19.10
2022-12-24T00:48:27.229Z,18.80
2022-12-24T00:50:54.311Z,18.80
2022-12-24T00:53:21.383Z,21.90
2022-12-24T00:55:48.283Z,16.60
2022-12-24T00:58:15.534Z,20.90
2022-12-24T01:00:42.392Z,19.60
2022-12-24T01:03:09.485Z,21.60
2022-12-24T01:05:36.731Z,21.20
2022-12-24T01:08:03.834Z,19.90
2022-12-24T01:10:30.796Z,21.40
2022-12-24T01:13:02.336Z,19.60
2022-12-24T01:15:29.655Z,20.30
2022-12-24T01:17:57.960Z,20.30
2022-12-24T01:20:31.051Z,21.40
2022-12-24T01:22:58.467Z,21.70
2022-12-24T01:25:25.442Z,19.00
2022-12-24T01:27:52.384Z,22.90
2022-12-24T01:30:19.555Z,18.30
2022-12-24T01:32:46.488Z,22.30
2022-12-24T01:35:13.622Z,27.00
2022-12-24T01:37:42.600Z,26.90
2022-12-24T01:40:34.933Z,28.70
2022-12-24T01:43:21.064Z,25.90
2022-12-24T01:45:53.792Z,30.50
2022-12-24T01:48:33.191Z,28.20
2022-12-24T01:51:18.952Z,28.30
2022-12-24T01:53:52.055Z,29.60
2022-12-24T01:56:20.767Z,23.20
2022-12-24T01:58:53.926Z,24.40
2022-12-24T02:01:20.975Z,24.10
2022-12-24T02:03:48.161Z,24.20
2022-12-24T02:06:17.490Z,24.40
2022-12-24T02:08:45.106Z,26.50
2022-12-24T02:11:21.853Z,22.00
2022-12-24T02:13:59.952Z,21.80
2022-12-24T02:17:04.252Z,25.00
2022-12-24T02:19:57.470Z,24.70
2022-12-24T02:22:52.257Z,20.90
2022-12-24T02:25:41.210Z,20.60
2022-12-24T02:28:26.795Z,25.20
2022-12-24T02:31:02.185Z,23.60
2022-12-24T02:33:32.986Z,23.00
2022-12-24T02:36:31.117Z,25.60
2022-12-24T02:39:06.051Z,21.80
2022-12-24T02:41:57.275Z,23.00
2022-12-24T02:44:28.229Z,23.10
2022-12-24T02:46:59.031Z,23.40
2022-12-24T02:49:25.984Z,21.90
2022-12-24T02:51:52.843Z,19.00
2022-12-24T02:54:19.984Z,22.20
2022-12-24T02:57:13.610Z,20.40
2022-12-24T03:00:05.055Z,21.20
2022-12-24T03:02:53.008Z,17.40
2022-12-24T03:05:23.313Z,22.20
2022-12-24T03:08:04.795Z,18.70
2022-12-24T03:11:01.824Z,19.10
2022-12-24T03:13:29.399Z,19.10
2022-12-24T03:15:56.442Z,18.60
2022-12-24T03:18:26.488Z,17.70
2022-12-24T03:21:07.034Z,19.10
2022-12-24T03:23:34.633Z,17.80
2022-12-24T03:26:06.957Z,16.60
2022-12-24T03:28:36.319Z,17.30
2022-12-24T03:31:05.860Z,18.10
2022-12-24T03:33:34.211Z,16.30
2022-12-24T03:36:02.223Z,17.20
2022-12-24T03:38:29.796Z,16.90
2022-12-24T03:40:56.782Z,17.60
2022-12-24T03:43:23.797Z,17.80
2022-12-24T03:45:50.799Z,17.00
2022-12-24T03:48:17.696Z,16.90
2022-12-24T03:50:44.774Z,17.00
2022-12-24T03:53:11.672Z,21.00
2022-12-24T03:55:39.265Z,14.10
2022-12-24T03:58:06.598Z,16.30
2022-12-24T04:00:33.650Z,14.30
2022-12-24T04:03:00.633Z,13.70
2022-12-24T04:05:27.709Z,9.80
2022-12-24T04:07:54.848Z,14.10
2022-12-24T04:10:21.784Z,10.70
2022-12-24T04:12:48.791Z,11.10
2022-12-24T04:15:15.675Z,12.20
2022-12-24T04:17:42.533Z,8.80
2022-12-24T04:20:10.084Z,10.40
2022-12-24T04:22:37.007Z,11.50
2022-12-24T04:25:04.113Z,8.90
2022-12-24T04:27:31.086Z,11.20
2022-12-24T04:29:58.232Z,9.80
2022-12-24T04:32:26.978Z,11.40
2022-12-24T04:34:54.203Z,10.70
2022-12-24T04:37:21.190Z,11.90
2022-12-24T04:39:48.168Z,10.60
2022-12-24T04:42:15.175Z,10.20
2022-12-24T04:44:42.088Z,9.90
2022-12-24T04:47:10.299Z,12.10
2022-12-24T04:49:37.287Z,10.40
2022-12-24T04:52:04.672Z,10.20
2022-12-24T04:54:31.579Z,13.50
2022-12-24T04:56:58.517Z,10.40
2022-12-24T04:59:25.435Z,11.80
2022-12-24T05:01:52.492Z,12.20
2022-12-24T05:04:19.494Z,13.60
2022-12-24T05:06:46.424Z,16.30
2022-12-24T05:09:13.504Z,13.10
2022-12-24T05:11:40.397Z,14.00
2022-12-24T05:14:07.406Z,17.10
2022-12-24T05:16:34.345Z,15.90
2022-12-24T05:19:01.340Z,18.50
2022-12-24T05:21:28.210Z,21.70
2022-12-24T05:24:14.449Z,19.50
2022-12-24T05:26:48.102Z,26.20
2022-12-24T05:29:15.460Z,37.00
2022-12-24T05:31:44.534Z,38.40
2022-12-24T05:34:13.559Z,38.40
2022-12-24T05:36:41.365Z,34.10
2022-12-24T05:39:15.695Z,36.10
2022-12-24T05:41:44.322Z,25.50
2022-12-24T05:44:11.338Z,20.40
2022-12-24T05:46:39.039Z,18.80
2022-12-24T05:49:06.004Z,15.20
2022-12-24T05:51:33.505Z,14.80
2022-12-24T05:54:00.520Z,14.70
2022-12-24T05:56:27.548Z,18.50
2022-12-24T05:58:54.684Z,18.00
2022-12-24T06:01:23.154Z,18.30
2022-12-24T06:03:51.608Z,17.70
2022-12-24T06:06:22.930Z,19.50
2022-12-24T06:08:52.593Z,29.80
2022-12-24T06:11:23.749Z,62.30
2022-12-24T06:13:52.209Z,77.00
2022-12-24T06:16:20.875Z,77.30
2022-12-24T06:18:47.984Z,45.00
2022-12-24T06:21:16.010Z,37.00
2022-12-24T06:23:44.612Z,36.40
2022-12-24T06:26:15.315Z,40.90
2022-12-24T06:28:43.662Z,43.80
2022-12-24T06:31:14.381Z,42.70
2022-12-24T06:33:42.003Z,38.60
2022-12-24T06:36:17.266Z,61.00
2022-12-24T06:38:47.200Z,56.10
2022-12-24T06:41:15.883Z,38.40
2022-12-24T06:43:45.377Z,30.90
2022-12-24T06:46:15.743Z,29.10
2022-12-24T06:48:44.811Z,35.00
2022-12-24T06:51:13.439Z,31.90
2022-12-24T06:53:40.654Z,32.10
2022-12-24T06:56:11.478Z,23.20
2022-12-24T06:58:40.232Z,25.40
2022-12-24T07:01:11.747Z,23.00
2022-12-24T07:03:42.363Z,17.70
2022-12-24T07:06:25.104Z,18.90
2022-12-24T07:08:53.043Z,21.80
2022-12-24T07:11:21.619Z,19.90
2022-12-24T07:13:48.761Z,20.60
2022-12-24T07:16:16.048Z,20.60
2022-12-24T07:18:43.212Z,23.30
2022-12-24T07:21:10.931Z,23.90
2022-12-24T07:23:38.064Z,21.90
2022-12-24T07:26:06.029Z,20.90
2022-12-24T07:28:33.139Z,21.30
2022-12-24T07:31:01.959Z,22.80
2022-12-24T07:33:29.250Z,20.60
2022-12-24T07:36:00.081Z,20.20
2022-12-24T07:38:27.577Z,15.90
2022-12-24T07:40:54.612Z,17.80
2022-12-24T07:43:21.561Z,16.80
2022-12-24T07:45:48.917Z,16.60
2022-12-24T07:48:15.928Z,18.30
2022-12-24T07:50:42.891Z,16.80
2022-12-24T07:53:09.798Z,15.80
2022-12-24T07:55:36.703Z,17.90
2022-12-24T07:58:03.652Z,16.60
2022-12-24T08:00:30.715Z,15.40
2022-12-24T08:02:59.692Z,16.60
2022-12-24T08:05:27.477Z,16.40
2022-12-24T08:07:54.878Z,18.00
2022-12-24T08:10:21.966Z,23.60
2022-12-24T08:12:49.531Z,22.50
2022-12-24T08:15:16.706Z,23.30
2022-12-24T08:17:44.667Z,21.60
2022-12-24T08:20:11.739Z,20.80
2022-12-24T08:22:38.823Z,22.30
2022-12-24T08:25:06.337Z,19.60
2022-12-24T08:27:33.311Z,21.50
2022-12-24T08:30:00.265Z,17.90
2022-12-24T08:32:27.159Z,18.80
2022-12-24T08:34:54.175Z,18.20
2022-12-24T08:37:21.248Z,20.10
2022-12-24T08:39:48.252Z,25.30
2022-12-24T08:42:15.245Z,19.70
2022-12-24T08:44:42.302Z,17.00
2022-12-24T08:47:09.236Z,17.60
2022-12-24T08:49:36.195Z,12.60
2022-12-24T08:52:03.734Z,26.00
2022-12-24T08:54:30.671Z,28.60
2022-12-24T08:56:57.626Z,17.70
2022-12-24T08:59:24.748Z,14.00
2022-12-24T09:01:51.853Z,15.00
2022-12-24T09:04:19.754Z,15.50
2022-12-24T09:06:46.954Z,15.60
2022-12-24T09:09:14.005Z,13.80
2022-12-24T09:11:57.951Z,12.20
2022-12-24T09:14:30.031Z,15.80
2022-12-24T09:17:03.634Z,12.10
2022-12-24T09:19:45.904Z,13.70
2022-12-24T09:22:18.489Z,14.80
2022-12-24T09:24:48.135Z,10.30
2022-12-24T09:27:37.910Z,13.10
2022-12-24T09:30:13.222Z,10.90
2022-12-24T09:32:42.670Z,11.30
2022-12-24T09:35:24.593Z,16.60
2022-12-24T09:38:44.305Z,12.20
2022-12-24T09:41:46.933Z,15.80
2022-12-24T09:45:20.635Z,13.70
2022-12-24T09:47:57.265Z,10.00
2022-12-24T09:50:51.150Z,9.00
2022-12-24T09:53:36.027Z,13.90
2022-12-24T09:56:11.396Z,10.30
2022-12-24T09:58:46.219Z,10.30
2022-12-24T10:01:16.223Z,8.80
2022-12-24T10:03:44.626Z,8.40
2022-12-24T10:06:15.990Z,11.80
2022-12-24T10:09:07.513Z,9.00
2022-12-24T10:11:40.725Z,11.80
2022-12-24T10:14:19.657Z,14.20
2022-12-24T10:17:13.802Z,10.80
2022-12-24T10:20:26.698Z,11.10
2022-12-24T10:23:20.493Z,10.70
2022-12-24T10:26:04.130Z,15.00
2022-12-24T10:28:41.143Z,14.50
2022-12-24T10:31:08.358Z,14.10
2022-12-24T10:33:51.028Z,9.70
2022-12-24T10:36:24.605Z,12.80
2022-12-24T10:38:51.855Z,13.70
2022-12-24T10:41:19.149Z,16.10
2022-12-24T10:43:48.179Z,15.00
2022-12-24T10:46:37.505Z,9.70
2022-12-24T10:49:12.543Z,10.60
2022-12-24T10:51:53.444Z,8.90
2022-12-24T10:54:27.544Z,11.40
2022-12-24T10:57:01.113Z,17.60
2022-12-24T10:59:52.165Z,17.20
2022-12-24T11:02:28.796Z,15.10
2022-12-24T11:04:59.064Z,13.00
2022-12-24T11:07:28.699Z,12.80
2022-12-24T11:10:07.302Z,12.60
2022-12-24T11:12:40.160Z,14.60
2022-12-24T11:15:19.129Z,10.00
2022-12-24T11:18:06.103Z,11.50
2022-12-24T11:20:35.239Z,16.70
2022-12-24T11:23:03.335Z,10.80
2022-12-24T11:25:39.837Z,10.40
2022-12-24T11:28:32.616Z,11.60
2022-12-24T11:31:20.328Z,11.80
2022-12-24T11:33:55.055Z,11.30
2022-12-24T11:36:26.060Z,10.00
2022-12-24T11:38:56.448Z,11.70
2022-12-24T11:41:26.184Z,11.70
2022-12-24T11:44:07.120Z,9.20
2022-12-24T11:46:38.448Z,8.30
2022-12-24T11:49:17.827Z,7.00
2022-12-24T11:52:17.355Z,7.00
2022-12-24T11:55:20.492Z,8.60
2022-12-24T11:58:02.179Z,5.60
2022-12-24T12:00:29.962Z,6.70
2022-12-24T12:03:02.456Z,8.20
2022-12-24T12:05:33.212Z,9.50
2022-12-24T12:08:14.133Z,13.20
2022-12-24T12:10:45.035Z,12.40
2022-12-24T12:13:17.300Z,13.30
2022-12-24T12:15:58.103Z,16.00
2022-12-24T12:18:55.074Z,13.10
2022-12-24T12:21:37.557Z,10.80
2022-12-24T12:24:19.139Z,17.80
2022-12-24T12:26:55.002Z,16.50
2022-12-24T12:29:33.723Z,16.60
2022-12-24T12:32:27.534Z,15.00
2022-12-24T12:35:16.067Z,16.60
2022-12-24T12:37:50.979Z,20.90
2022-12-24T12:40:18.240Z,16.40
2022-12-24T12:43:05.185Z,12.90
2022-12-24T12:46:03.684Z,14.30
2022-12-24T12:48:40.137Z,11.30
2022-12-24T12:51:53.270Z,13.20
2022-12-24T12:54:43.781Z,13.50
2022-12-24T12:57:14.871Z,14.50
2022-12-24T12:59:52.753Z,12.60
2022-12-24T13:02:23.446Z,13.20
2022-12-24T13:05:24.960Z,14.60
2022-12-24T13:08:17.331Z,10.40
2022-12-24T13:10:52.822Z,13.00
2022-12-24T13:13:35.889Z,12.30
2022-12-24T13:16:32.132Z,12.50
2022-12-24T13:19:17.832Z,15.10
2022-12-24T13:24:15.899Z,14.20
2022-12-24T13:26:58.715Z,16.70
2022-12-24T13:29:35.126Z,14.10
2022-12-24T13:32:20.511Z,14.20
2022-12-24T13:37:35.727Z,13.40
2022-12-24T13:40:09.600Z,15.70
2022-12-24T13:42:58.513Z,15.40
2022-12-24T13:45:28.619Z,16.20
2022-12-24T13:47:58.401Z,19.90
2022-12-24T13:50:34.409Z,20.40
2022-12-24T13:53:03.202Z,20.10
2022-12-24T13:55:31.875Z,16.90
2022-12-24T13:58:04.705Z,21.00
2022-12-24T14:00:42.695Z,19.30
2022-12-24T14:03:15.320Z,19.20
2022-12-24T14:05:43.448Z,21.30
2022-12-24T14:08:27.142Z,18.00
2022-12-24T14:11:25.830Z,19.20
2022-12-24T14:14:26.503Z,17.30
2022-12-24T14:16:57.935Z,18.70
2022-12-24T14:19:33.686Z,16.40
2022-12-24T14:22:28.467Z,15.80
2022-12-24T14:25:16.084Z,20.70
2022-12-24T14:27:43.086Z,31.40
2022-12-24T14:30:25.307Z,24.30
2022-12-24T14:32:54.064Z,22.60
2022-12-24T14:35:36.786Z,26.80
2022-12-24T14:38:20.859Z,24.80
2022-12-24T14:41:26.709Z,23.20
2022-12-24T14:44:15.523Z,27.70
2022-12-24T14:47:01.839Z,24.60
2022-12-24T14:49:35.715Z,21.90
2022-12-24T14:53:03.394Z,24.20
2022-12-24T14:55:30.906Z,22.60
2022-12-24T14:58:23.737Z,20.40
2022-12-24T15:00:53.675Z,28.30
2022-12-24T15:03:23.854Z,24.30
2022-12-24T15:06:06.255Z,20.90
2022-12-24T15:08:39.616Z,24.80
2022-12-24T15:11:09.929Z,22.50
2022-12-24T15:13:43.714Z,24.40
2022-12-24T15:16:15.023Z,23.00
2022-12-24T15:18:49.096Z,28.20
2022-12-24T15:21:29.500Z,26.00
2022-12-24T15:23:56.797Z,24.00
2022-12-24T15:26:34.532Z,26.20
2022-12-24T15:29:13.386Z,21.80
2022-12-24T15:31:40.424Z,24.80
2022-12-24T15:34:42.169Z,25.10
2022-12-24T15:37:29.631Z,23.70
2022-12-24T15:40:08.910Z,31.10
2022-12-24T15:42:41.848Z,27.90
2022-12-24T15:45:18.055Z,29.20
2022-12-24T15:48:06.423Z,27.20
2022-12-24T15:50:43.162Z,24.20
2022-12-24T15:53:25.775Z,24.70
2022-12-24T15:56:31.770Z,27.40
2022-12-24T15:59:24.788Z,23.50
2022-12-24T16:01:51.987Z,27.30
2022-12-24T16:04:27.892Z,28.10
2022-12-24T16:07:01.474Z,24.40
2022-12-24T16:09:34.584Z,36.70
2022-12-24T16:12:29.313Z,28.20
2022-12-24T16:15:00.601Z,28.90
2022-12-24T16:17:32.852Z,27.20
2022-12-24T16:20:05.437Z,28.50
2022-12-24T16:22:34.666Z,24.70
2022-12-24T16:25:25.310Z,26.90
2022-12-24T16:27:53.211Z,27.10
2022-12-24T16:30:21.703Z,27.40
2022-12-24T16:32:50.525Z,28.50
2022-12-24T16:35:25.982Z,25.50
2022-12-24T16:37:54.650Z,29.60
2022-12-24T16:40:26.792Z,27.00
2022-12-24T16:43:16.423Z,21.80
2022-12-24T16:45:46.269Z,29.60
2022-12-24T16:48:22.954Z,22.00
2022-12-24T16:50:52.084Z,25.80
2022-12-24T16:53:20.785Z,24.60
2022-12-24T16:55:50.758Z,25.00
2022-12-24T16:58:18.853Z,29.50
2022-12-24T17:00:46.567Z,28.90
2022-12-24T17:03:13.888Z,24.60
2022-12-24T17:05:42.861Z,27.50
2022-12-24T17:08:10.859Z,31.20
2022-12-24T17:10:38.310Z,25.80
2022-12-24T17:13:05.338Z,27.10
2022-12-24T17:15:32.702Z,28.50
2022-12-24T17:17:59.663Z,29.00
2022-12-24T17:20:26.687Z,26.50
2022-12-24T17:22:53.953Z,25.10
2022-12-24T17:25:21.000Z,27.90
2022-12-24T17:27:47.871Z,30.30
2022-12-24T17:30:15.851Z,36.10
2022-12-24T17:32:42.829Z,42.60
2022-12-24T17:35:10.051Z,38.30
2022-12-24T17:37:37.241Z,28.90
2022-12-24T17:40:04.894Z,31.30
2022-12-24T17:42:31.940Z,39.60
2022-12-24T17:44:58.911Z,38.20
2022-12-24T17:47:25.827Z,36.10
2022-12-24T17:49:53.534Z,29.90
2022-12-24T17:52:20.546Z,33.20
2022-12-24T17:54:47.491Z,31.10
2022-12-24T17:57:14.487Z,31.00
2022-12-24T17:59:41.531Z,34.10
2022-12-24T18:02:12.065Z,23.20
2022-12-24T18:04:39.273Z,29.50
2022-12-24T18:07:06.455Z,27.10
2022-12-24T18:09:33.467Z,34.40
2022-12-24T18:12:00.934Z,29.40
2022-12-24T18:14:27.935Z,27.60
2022-12-24T18:16:54.859Z,26.70
2022-12-24T18:19:21.770Z,27.90
2022-12-24T18:21:48.804Z,37.90
2022-12-24T18:24:15.705Z,30.10
2022-12-24T18:26:45.155Z,23.90
2022-12-24T18:29:13.361Z,28.30
2022-12-24T18:31:40.936Z,30.30
2022-12-24T18:34:12.062Z,28.20
2022-12-24T18:36:39.288Z,28.40
2022-12-24T18:39:06.221Z,27.60
2022-12-24T18:41:34.856Z,33.00
2022-12-24T18:44:01.991Z,27.30
2022-12-24T18:46:31.577Z,31.70
2022-12-24T18:49:00.267Z,28.10
2022-12-24T18:51:32.220Z,28.70
2022-12-24T18:53:59.267Z,28.30
2022-12-24T18:56:26.424Z,28.30
2022-12-24T18:58:59.207Z,31.90
2022-12-24T19:01:32.140Z,32.90
2022-12-24T19:04:02.785Z,35.40
2022-12-24T19:06:31.365Z,32.30
2022-12-24T19:09:00.125Z,33.20
2022-12-24T19:11:30.854Z,40.20
2022-12-24T19:13:59.417Z,31.80
2022-12-24T19:16:29.001Z,32.10
2022-12-24T19:18:56.913Z,39.00
2022-12-24T19:21:24.203Z,28.90
2022-12-24T19:23:51.563Z,31.50
2022-12-24T19:26:22.384Z,26.20
2022-12-24T19:28:50.704Z,26.40
2022-12-24T19:31:21.572Z,25.60
2022-12-24T19:33:55.147Z,40.60
2022-12-24T19:36:28.405Z,37.20
2022-12-24T19:38:57.484Z,30.30
2022-12-24T19:41:27.527Z,33.40
2022-12-24T19:43:57.650Z,28.70
2022-12-24T19:46:30.212Z,27.20
2022-12-24T19:49:00.537Z,27.70
2022-12-24T19:51:28.797Z,26.90
2022-12-24T19:53:57.375Z,27.00
2022-12-24T19:56:27.214Z,29.20
2022-12-24T19:58:56.910Z,28.20
2022-12-24T20:01:26.449Z,26.00
2022-12-24T20:03:54.943Z,47.50
2022-12-24T20:06:24.889Z,50.40
2022-12-24T20:08:56.739Z,45.60
2022-12-24T20:11:23.658Z,41.30
2022-12-24T20:13:50.802Z,27.50
2022-12-24T20:16:20.607Z,27.60
2022-12-24T20:18:53.116Z,29.50
2022-12-24T20:21:20.991Z,24.30
2022-12-24T20:23:48.455Z,30.60
2022-12-24T20:26:18.351Z,23.70
2022-12-24T20:28:46.116Z,25.60
2022-12-24T20:31:22.436Z,24.60
2022-12-24T20:33:49.483Z,25.10
2022-12-24T20:36:19.739Z,20.50
2022-12-24T20:38:46.845Z,24.10
2022-12-24T20:41:16.398Z,24.40
2022-12-24T20:43:48.294Z,26.20
2022-12-24T20:46:22.102Z,22.90
2022-12-24T20:48:51.198Z,28.50
2022-12-24T20:51:24.755Z,23.70
2022-12-24T20:53:55.247Z,24.50
2022-12-24T20:56:22.823Z,24.90
2022-12-24T20:58:50.358Z,24.50
2022-12-24T21:01:21.040Z,26.50
2022-12-24T21:03:48.120Z,26.30
2022-12-24T21:06:17.376Z,26.60
2022-12-24T21:08:46.040Z,34.20
2022-12-24T21:11:32.145Z,30.90
2022-12-24T21:14:01.726Z,39.20
2022-12-24T21:16:31.468Z,54.20
2022-12-24T21:18:59.011Z,39.90
2022-12-24T21:21:26.093Z,40.50
2022-12-24T21:23:53.777Z,29.20
2022-12-24T21:26:20.787Z,30.40
2022-12-24T21:28:48.532Z,39.00
2022-12-24T21:31:16.088Z,33.20
2022-12-24T21:33:43.066Z,32.30
2022-12-24T21:36:12.235Z,32.00
2022-12-24T21:38:39.627Z,30.20
2022-12-24T21:41:11.852Z,29.20
2022-12-24T21:43:39.285Z,24.00
2022-12-24T21:46:08.494Z,27.30
2022-12-24T21:48:56.844Z,25.90
2022-12-24T21:51:26.090Z,21.40
2022-12-24T21:54:11.762Z,26.60
2022-12-24T21:56:57.637Z,30.50
2022-12-24T21:59:27.128Z,28.70
2022-12-24T22:01:56.127Z,37.80
2022-12-24T22:04:24.434Z,35.80
2022-12-24T22:07:10.436Z,30.10
2022-12-24T22:09:57.900Z,32.20
2022-12-24T22:12:31.651Z,28.90
2022-12-24T22:15:01.443Z,27.60
2022-12-24T22:17:28.459Z,33.90
2022-12-24T22:19:55.395Z,34.80
2022-12-24T22:22:23.347Z,30.00
2022-12-24T22:24:50.789Z,39.70
2022-12-24T22:27:17.850Z,34.40
2022-12-24T22:29:44.990Z,37.00
2022-12-24T22:32:11.973Z,34.30
2022-12-24T22:34:38.922Z,34.70
2022-12-24T22:37:06.045Z,37.90
2022-12-24T22:39:33.259Z,34.80
2022-12-24T22:42:00.273Z,34.70
2022-12-24T22:44:27.484Z,36.00
2022-12-24T22:46:54.395Z,28.20
2022-12-24T22:49:21.384Z,28.90
2022-12-24T22:51:48.504Z,29.90
2022-12-24T22:54:15.566Z,31.60
2022-12-24T22:56:42.575Z,31.90
2022-12-24T22:59:13.304Z,34.50
2022-12-24T23:01:43.551Z,33.00
2022-12-24T23:04:11.913Z,32.80
2022-12-24T23:06:40.068Z,31.60
2022-12-24T23:09:10.096Z,30.50
2022-12-24T23:11:38.635Z,33.20
2022-12-24T23:14:24.499Z,38.40
2022-12-24T23:16:51.505Z,35.70
2022-12-24T23:19:18.375Z,38.20
2022-12-24T23:21:45.243Z,37.00
2022-12-24T23:24:12.443Z,37.80
2022-12-24T23:26:39.927Z,42.20
2022-12-24T23:29:06.942Z,32.90
2022-12-24T23:31:37.140Z,34.60
2022-12-24T23:34:04.401Z,36.20
2022-12-24T23:36:31.326Z,31.00
2022-12-24T23:38:58.457Z,34.40
2022-12-24T23:41:25.415Z,30.40
2022-12-24T23:43:52.644Z,38.50
2022-12-24T23:46:20.746Z,33.50
2022-12-24T23:48:48.445Z,37.50
2022-12-24T23:51:19.199Z,34.90
2022-12-24T23:53:46.093Z,38.90
2022-12-24T23:56:13.254Z,34.80
2022-12-24T23:58:41.946Z,31.90
